createdAt,value
2022-07-26T00:01:48.847Z,20.38
2022-07-26T00:04:16.605Z,20.39
2022-07-26T00:06:44.341Z,20.39
2022-07-26T00:09:11.960Z,20.43
2022-07-26T00:11:39.624Z,20.43
2022-07-26T00:14:09.377Z,20.42
2022-07-26T00:16:37.868Z,20.42
2022-07-26T00:19:08.072Z,20.44
2022-07-26T00:21:37.423Z,20.43
2022-07-26T00:24:08.852Z,20.42
2022-07-26T00:26:36.552Z,20.35
2022-07-26T00:29:05.254Z,20.40
2022-07-26T00:31:33.068Z,20.39
2022-07-26T00:34:00.742Z,20.41
2022-07-26T00:36:29.168Z,20.40
2022-07-26T00:38:56.725Z,20.40
2022-07-26T00:41:24.278Z,20.38
2022-07-26T00:44:00.206Z,20.36
2022-07-26T00:46:28.077Z,20.34
2022-07-26T00:48:55.842Z,20.27
2022-07-26T00:51:23.910Z,20.32
2022-07-26T00:53:51.463Z,20.30
2022-07-26T00:56:22.549Z,20.28
2022-07-26T00:58:50.262Z,20.31
2022-07-26T01:01:17.874Z,20.32
2022-07-26T01:03:45.676Z,20.27
2022-07-26T01:06:16.146Z,20.30
2022-07-26T01:08:44.069Z,20.31
2022-07-26T01:11:11.668Z,20.31
2022-07-26T01:13:49.622Z,20.28
2022-07-26T01:16:18.126Z,20.26
2022-07-26T01:18:45.711Z,20.27
2022-07-26T01:21:14.327Z,20.26
2022-07-26T01:23:44.038Z,20.20
2022-07-26T01:26:12.049Z,20.17
2022-07-26T01:28:41.191Z,20.23
2022-07-26T01:31:09.230Z,20.19
2022-07-26T01:33:37.015Z,20.27
2022-07-26T01:36:04.700Z,20.25
2022-07-26T01:38:32.210Z,20.29
2022-07-26T01:40:59.805Z,20.29
2022-07-26T01:43:27.973Z,20.29
2022-07-26T01:45:55.601Z,20.29
2022-07-26T01:48:23.431Z,20.20
2022-07-26T01:50:51.032Z,20.18
2022-07-26T01:53:18.787Z,20.25
2022-07-26T01:55:46.356Z,20.19
2022-07-26T01:58:13.953Z,20.18
2022-07-26T02:00:41.662Z,20.17
2022-07-26T02:03:09.555Z,20.17
2022-07-26T02:05:37.196Z,20.21
2022-07-26T02:08:05.142Z,20.26
2022-07-26T02:10:51.034Z,20.35
2022-07-26T02:13:19.169Z,20.37
2022-07-26T02:15:46.818Z,20.48
2022-07-26T02:18:14.431Z,20.54
2022-07-26T02:20:41.980Z,20.61
2022-07-26T02:23:09.527Z,20.67
2022-07-26T02:25:37.157Z,20.74
2022-07-26T02:28:04.844Z,20.83
2022-07-26T02:30:32.486Z,20.91
2022-07-26T02:33:01.311Z,20.90
2022-07-26T02:35:28.946Z,20.95
2022-07-26T02:37:56.470Z,21.03
2022-07-26T02:40:23.989Z,21.08
2022-07-26T02:42:51.634Z,21.07
2022-07-26T02:45:19.280Z,21.10
2022-07-26T02:47:51.021Z,21.10
2022-07-26T02:50:19.833Z,21.21
2022-07-26T02:52:48.596Z,21.45
2022-07-26T02:55:17.331Z,22.04
2022-07-26T02:57:46.881Z,22.72
2022-07-26T03:00:17.503Z,23.31
2022-07-26T03:02:45.295Z,23.85
2022-07-26T03:05:12.973Z,24.34
2022-07-26T03:07:40.671Z,24.86
2022-07-26T03:10:09.115Z,25.32
2022-07-26T03:12:38.307Z,25.73
2022-07-26T03:15:07.038Z,25.98
2022-07-26T03:17:34.621Z,26.37
2022-07-26T03:20:02.875Z,26.60
2022-07-26T03:22:31.284Z,26.74
2022-07-26T03:24:59.130Z,26.93
2022-07-26T03:27:26.623Z,26.92
2022-07-26T03:29:54.157Z,26.91
2022-07-26T03:32:21.735Z,26.93
2022-07-26T03:34:49.259Z,26.98
2022-07-26T03:37:18.112Z,27.19
2022-07-26T03:39:45.755Z,27.51
2022-07-26T03:42:13.338Z,27.96
2022-07-26T03:44:41.127Z,28.30
2022-07-26T03:47:08.815Z,28.41
2022-07-26T03:49:36.426Z,28.57
2022-07-26T03:52:04.396Z,28.71
2022-07-26T03:54:32.035Z,28.66
2022-07-26T03:56:59.512Z,28.90
2022-07-26T03:59:27.666Z,29.18
2022-07-26T04:01:58.150Z,29.48
2022-07-26T04:04:26.585Z,29.71
2022-07-26T04:06:55.262Z,29.98
2022-07-26T04:09:24.298Z,30.08
2022-07-26T04:11:51.826Z,30.36
2022-07-26T04:14:19.360Z,30.36
2022-07-26T04:16:47.014Z,30.43
2022-07-26T04:19:14.608Z,30.77
2022-07-26T04:21:42.114Z,31.08
2022-07-26T04:24:10.662Z,30.94
2022-07-26T04:26:38.502Z,30.95
2022-07-26T04:29:06.020Z,30.75
2022-07-26T04:31:36.383Z,30.86
2022-07-26T04:34:04.243Z,30.86
2022-07-26T04:36:31.998Z,31.17
2022-07-26T04:38:59.440Z,31.52
2022-07-26T04:41:27.022Z,31.88
2022-07-26T04:43:54.517Z,32.16
2022-07-26T04:46:22.129Z,32.44
2022-07-26T04:48:49.673Z,32.64
2022-07-26T04:51:17.257Z,32.48
2022-07-26T04:53:44.757Z,32.55
2022-07-26T04:56:12.454Z,32.55
2022-07-26T04:58:40.116Z,32.74
2022-07-26T05:01:10.455Z,33.06
2022-07-26T05:03:39.407Z,33.33
2022-07-26T05:06:07.240Z,33.74
2022-07-26T05:08:34.810Z,33.97
2022-07-26T05:11:02.475Z,34.06
2022-07-26T05:13:31.055Z,34.42
2022-07-26T05:16:00.150Z,34.59
2022-07-26T05:18:31.486Z,34.96
2022-07-26T05:20:59.720Z,35.19
2022-07-26T05:23:27.985Z,35.44
2022-07-26T05:25:56.652Z,35.83
2022-07-26T05:28:24.174Z,35.92
2022-07-26T05:30:52.033Z,35.39
2022-07-26T05:33:19.859Z,34.68
2022-07-26T05:35:47.462Z,34.34
2022-07-26T05:38:15.046Z,34.20
2022-07-26T05:40:47.212Z,34.22
2022-07-26T05:43:18.563Z,34.63
2022-07-26T05:45:46.251Z,34.96
2022-07-26T05:48:14.253Z,35.22
2022-07-26T05:50:44.217Z,35.47
2022-07-26T05:53:11.753Z,36.01
2022-07-26T05:55:39.281Z,36.51
2022-07-26T05:58:06.912Z,36.79
2022-07-26T06:00:34.666Z,36.53
2022-07-26T06:03:22.274Z,36.21
2022-07-26T06:05:54.827Z,36.20
2022-07-26T06:08:23.020Z,35.37
2022-07-26T06:10:51.298Z,34.39
2022-07-26T06:13:19.162Z,34.44
2022-07-26T06:15:47.393Z,34.75
2022-07-26T06:18:15.045Z,34.94
2022-07-26T06:20:45.031Z,34.86
2022-07-26T06:23:13.450Z,35.23
2022-07-26T06:25:41.244Z,35.75
2022-07-26T06:28:10.659Z,36.04
2022-07-26T06:30:39.515Z,36.15
2022-07-26T06:33:08.089Z,36.06
2022-07-26T06:35:37.437Z,36.27
2022-07-26T06:38:07.237Z,36.06
2022-07-26T06:40:35.539Z,36.34
2022-07-26T06:43:04.653Z,36.69
2022-07-26T06:45:33.414Z,37.14
2022-07-26T06:48:00.989Z,37.52
2022-07-26T06:50:28.699Z,37.73
2022-07-26T06:52:56.418Z,37.77
2022-07-26T06:55:24.928Z,37.92
2022-07-26T06:57:52.467Z,38.01
2022-07-26T07:00:20.280Z,38.34
2022-07-26T07:02:47.938Z,38.20
2022-07-26T07:05:15.570Z,38.22
2022-07-26T07:07:43.870Z,38.46
2022-07-26T07:10:12.735Z,38.51
2022-07-26T07:12:40.893Z,38.64
2022-07-26T07:15:08.834Z,38.62
2022-07-26T07:17:36.495Z,38.22
2022-07-26T07:20:05.655Z,37.82
2022-07-26T07:22:33.310Z,38.00
2022-07-26T07:25:01.173Z,38.30
2022-07-26T07:27:31.072Z,38.09
2022-07-26T07:29:58.616Z,37.91
2022-07-26T07:32:26.311Z,38.00
2022-07-26T07:34:53.995Z,38.40
2022-07-26T07:37:21.720Z,38.71
2022-07-26T07:39:51.029Z,38.28
2022-07-26T07:42:19.782Z,37.95
2022-07-26T07:44:47.809Z,38.01
2022-07-26T07:47:15.659Z,37.84
2022-07-26T07:49:43.838Z,38.08
2022-07-26T07:52:11.497Z,37.79
2022-07-26T07:54:39.634Z,37.82
2022-07-26T07:57:07.778Z,37.86
2022-07-26T07:59:39.030Z,37.81
2022-07-26T08:02:07.638Z,37.50
2022-07-26T08:04:35.614Z,37.61
2022-07-26T08:07:04.703Z,37.74
2022-07-26T08:09:33.737Z,37.82
2022-07-26T08:12:02.185Z,37.79
2022-07-26T08:14:29.974Z,37.89
2022-07-26T08:16:57.975Z,38.15
2022-07-26T08:19:27.574Z,37.90
2022-07-26T08:22:09.435Z,38.30
2022-07-26T08:24:37.334Z,38.28
2022-07-26T08:27:05.282Z,38.34
2022-07-26T08:29:32.881Z,38.67
2022-07-26T08:32:00.813Z,38.83
2022-07-26T08:34:28.539Z,38.59
2022-07-26T08:37:16.034Z,38.28
2022-07-26T08:39:44.229Z,37.94
2022-07-26T08:42:16.444Z,37.64
2022-07-26T08:44:48.069Z,37.73
2022-07-26T08:47:18.196Z,37.88
2022-07-26T08:50:06.072Z,38.05
2022-07-26T08:52:33.644Z,37.62
2022-07-26T08:55:01.150Z,36.91
2022-07-26T08:57:30.339Z,36.97
2022-07-26T09:00:20.961Z,37.44
2022-07-26T09:02:49.506Z,37.62
2022-07-26T09:05:27.676Z,37.75
2022-07-26T09:07:56.210Z,37.96
2022-07-26T09:10:24.533Z,38.15
2022-07-26T09:12:57.297Z,37.92
2022-07-26T09:15:28.846Z,37.89
2022-07-26T09:17:58.354Z,38.07
2022-07-26T09:20:31.392Z,38.29
2022-07-26T09:23:04.596Z,38.04
2022-07-26T09:25:37.518Z,38.25
2022-07-26T09:28:21.278Z,38.19
2022-07-26T09:30:54.237Z,38.61
2022-07-26T09:33:22.005Z,38.79
2022-07-26T09:36:07.298Z,38.71
2022-07-26T09:38:41.936Z,38.30
2022-07-26T09:41:28.779Z,38.23
2022-07-26T09:44:00.393Z,38.40
2022-07-26T09:46:33.266Z,38.55
2022-07-26T09:49:20.883Z,38.58
2022-07-26T09:51:50.686Z,38.63
2022-07-26T09:54:37.253Z,38.56
2022-07-26T09:57:04.887Z,38.58
2022-07-26T09:59:33.648Z,38.38
2022-07-26T10:02:01.595Z,38.29
2022-07-26T10:04:29.289Z,37.91
2022-07-26T10:07:00.669Z,37.28
2022-07-26T10:09:35.078Z,37.21
2022-07-26T10:12:07.440Z,37.25
2022-07-26T10:14:35.373Z,37.16
2022-07-26T10:17:31.307Z,36.79
2022-07-26T10:20:17.043Z,36.17
2022-07-26T10:22:46.778Z,35.86
2022-07-26T10:25:17.556Z,35.59
2022-07-26T10:27:47.128Z,35.21
2022-07-26T10:30:20.639Z,35.00
2022-07-26T10:33:00.296Z,35.29
2022-07-26T10:35:34.707Z,35.36
2022-07-26T10:38:10.739Z,35.58
2022-07-26T10:40:55.529Z,35.55
2022-07-26T10:43:40.042Z,35.39
2022-07-26T10:46:20.756Z,35.41
2022-07-26T10:49:09.302Z,35.63
2022-07-26T10:51:39.610Z,35.84
2022-07-26T10:54:13.491Z,35.88
2022-07-26T10:56:41.684Z,35.83
2022-07-26T10:59:09.272Z,35.73
2022-07-26T11:01:42.812Z,35.27
2022-07-26T11:04:20.565Z,34.59
2022-07-26T11:06:49.346Z,34.39
2022-07-26T11:09:19.173Z,34.39
2022-07-26T11:11:49.129Z,34.45
2022-07-26T11:14:18.392Z,34.34
2022-07-26T11:16:48.707Z,34.31
2022-07-26T11:19:25.487Z,34.34
2022-07-26T11:21:59.292Z,34.32
2022-07-26T11:24:27.859Z,34.06
2022-07-26T11:26:55.816Z,34.20
2022-07-26T11:29:38.546Z,34.77
2022-07-26T11:32:25.558Z,35.27
2022-07-26T11:35:01.191Z,35.59
2022-07-26T11:37:31.298Z,35.70
2022-07-26T11:39:59.031Z,35.92
2022-07-26T11:42:26.595Z,35.99
2022-07-26T11:44:54.345Z,35.83
2022-07-26T11:47:26.407Z,35.51
2022-07-26T11:50:14.242Z,35.38
2022-07-26T11:52:42.806Z,35.53
2022-07-26T11:55:11.283Z,35.73
2022-07-26T11:57:40.074Z,35.63
2022-07-26T12:00:08.426Z,35.30
2022-07-26T12:02:41.812Z,34.97
2022-07-26T12:05:16.560Z,34.94
2022-07-26T12:07:56.279Z,34.95
2022-07-26T12:10:24.452Z,35.08
2022-07-26T12:13:10.561Z,35.25
2022-07-26T12:15:53.032Z,35.41
2022-07-26T12:18:31.721Z,35.18
2022-07-26T12:21:08.679Z,34.71
2022-07-26T12:23:46.634Z,34.31
2022-07-26T12:26:29.270Z,34.18
2022-07-26T12:28:58.021Z,34.22
2022-07-26T12:31:31.359Z,34.37
2022-07-26T12:33:59.762Z,34.57
2022-07-26T12:36:29.775Z,34.58
2022-07-26T12:39:01.465Z,34.20
2022-07-26T12:41:38.704Z,33.98
2022-07-26T12:44:09.443Z,33.92
2022-07-26T12:46:37.489Z,34.06
2022-07-26T12:49:05.901Z,34.00
2022-07-26T12:51:34.331Z,33.96
2022-07-26T12:54:02.235Z,34.03
2022-07-26T12:56:29.940Z,34.06
2022-07-26T12:59:01.731Z,34.06
2022-07-26T13:01:31.819Z,34.02
2022-07-26T13:04:01.068Z,33.86
2022-07-26T13:06:28.952Z,33.80
2022-07-26T13:08:56.839Z,33.76
2022-07-26T13:11:25.372Z,33.48
2022-07-26T13:13:53.223Z,33.27
2022-07-26T13:16:20.796Z,33.13
2022-07-26T13:18:48.402Z,33.09
2022-07-26T13:21:16.160Z,33.00
2022-07-26T13:23:43.847Z,32.85
2022-07-26T13:26:11.665Z,32.81
2022-07-26T13:28:41.238Z,32.79
2022-07-26T13:31:10.110Z,32.78
2022-07-26T13:33:39.598Z,32.86
2022-07-26T13:36:07.446Z,32.72
2022-07-26T13:38:35.641Z,32.66
2022-07-26T13:41:03.978Z,32.62
2022-07-26T13:43:31.824Z,32.48
2022-07-26T13:45:59.533Z,32.23
2022-07-26T13:48:27.503Z,32.03
2022-07-26T13:50:55.865Z,31.90
2022-07-26T13:53:24.339Z,31.91
2022-07-26T13:55:52.441Z,31.87
2022-07-26T13:58:21.946Z,31.83
2022-07-26T14:00:51.318Z,31.64
2022-07-26T14:03:19.167Z,31.54
2022-07-26T14:05:46.845Z,31.57
2022-07-26T14:08:14.513Z,31.62
2022-07-26T14:10:42.418Z,31.56
2022-07-26T14:13:10.249Z,31.52
2022-07-26T14:15:37.930Z,31.56
2022-07-26T14:18:05.842Z,31.52
2022-07-26T14:20:33.451Z,31.54
2022-07-26T14:23:01.121Z,31.57
2022-07-26T14:25:29.169Z,31.68
2022-07-26T14:28:00.265Z,31.72
2022-07-26T14:30:27.888Z,31.60
2022-07-26T14:32:55.496Z,31.43
2022-07-26T14:35:23.184Z,31.29
2022-07-26T14:37:50.916Z,31.12
2022-07-26T14:40:18.729Z,31.02
2022-07-26T14:42:46.812Z,30.87
2022-07-26T14:45:15.283Z,30.82
2022-07-26T14:47:43.418Z,30.81
2022-07-26T14:50:12.756Z,30.67
2022-07-26T14:52:43.302Z,30.60
2022-07-26T14:55:11.607Z,30.47
2022-07-26T14:57:40.438Z,30.36
2022-07-26T15:00:11.254Z,30.23
2022-07-26T15:02:43.801Z,30.12
2022-07-26T15:05:13.203Z,30.02
2022-07-26T15:07:42.254Z,29.96
2022-07-26T15:10:11.899Z,29.90
2022-07-26T15:12:40.055Z,29.92
2022-07-26T15:15:08.957Z,30.03
2022-07-26T15:17:36.995Z,30.01
2022-07-26T15:20:05.560Z,29.91
2022-07-26T15:22:33.270Z,29.75
2022-07-26T15:25:00.884Z,29.72
2022-07-26T15:27:31.506Z,29.64
2022-07-26T15:30:04.313Z,29.61
2022-07-26T15:32:35.299Z,29.43
2022-07-26T15:35:03.400Z,29.43
2022-07-26T15:37:30.969Z,29.38
2022-07-26T15:39:58.831Z,29.30
2022-07-26T15:42:26.636Z,29.28
2022-07-26T15:44:55.780Z,29.21
2022-07-26T15:47:53.188Z,29.11
2022-07-26T15:50:14.424Z,29.05
2022-07-26T15:52:45.310Z,28.95
2022-07-26T15:55:14.389Z,29.02
2022-07-26T15:57:42.172Z,28.93
2022-07-26T16:00:12.152Z,28.87
2022-07-26T16:02:41.582Z,28.79
2022-07-26T16:05:10.605Z,28.69
2022-07-26T16:07:41.766Z,28.58
2022-07-26T16:10:12.569Z,28.53
2022-07-26T16:12:41.988Z,28.50
2022-07-26T16:15:11.115Z,28.47
2022-07-26T16:17:39.182Z,28.45
2022-07-26T16:20:07.844Z,28.40
2022-07-26T16:22:36.117Z,28.32
2022-07-26T16:25:06.161Z,28.26
2022-07-26T16:27:33.720Z,28.17
2022-07-26T16:30:01.305Z,28.09
2022-07-26T16:32:31.376Z,27.98
2022-07-26T16:34:59.030Z,27.86
2022-07-26T16:37:26.575Z,27.76
2022-07-26T16:39:55.886Z,27.58
2022-07-26T16:42:23.832Z,27.56
2022-07-26T16:44:51.602Z,27.45
2022-07-26T16:47:19.156Z,27.32
2022-07-26T16:49:46.839Z,27.22
2022-07-26T16:52:14.644Z,27.18
2022-07-26T16:54:43.022Z,27.11
2022-07-26T16:57:11.179Z,26.99
2022-07-26T16:59:38.834Z,26.91
2022-07-26T17:02:06.651Z,26.84
2022-07-26T17:04:41.442Z,26.76
2022-07-26T17:07:24.544Z,26.67
2022-07-26T17:09:55.686Z,26.61
2022-07-26T17:12:23.943Z,26.55
2022-07-26T17:14:52.832Z,26.46
2022-07-26T17:17:20.537Z,26.45
2022-07-26T17:19:48.191Z,26.40
2022-07-26T17:22:17.012Z,26.36
2022-07-26T17:24:44.648Z,26.33
2022-07-26T17:27:12.351Z,26.29
2022-07-26T17:29:40.118Z,26.26
2022-07-26T17:32:09.043Z,26.13
2022-07-26T17:34:37.503Z,26.12
2022-07-26T17:37:07.057Z,26.07
2022-07-26T17:39:51.908Z,26.07
2022-07-26T17:42:20.873Z,25.99
2022-07-26T17:44:48.815Z,25.87
2022-07-26T17:47:28.471Z,25.82
2022-07-26T17:50:37.691Z,25.71
2022-07-26T17:52:51.286Z,25.57
2022-07-26T17:55:19.867Z,25.43
2022-07-26T17:57:50.175Z,25.33
2022-07-26T18:00:19.699Z,25.30
2022-07-26T18:02:48.100Z,25.24
2022-07-26T18:05:16.878Z,25.18
2022-07-26T18:07:44.526Z,25.08
2022-07-26T18:10:12.337Z,25.06
2022-07-26T18:12:39.956Z,25.04
2022-07-26T18:15:08.320Z,24.96
2022-07-26T18:17:38.523Z,24.98
2022-07-26T18:20:12.746Z,24.95
2022-07-26T18:22:40.760Z,24.88
2022-07-26T18:25:08.793Z,24.87
2022-07-26T18:27:36.424Z,24.84
2022-07-26T18:30:05.679Z,24.75
2022-07-26T18:32:34.428Z,24.78
2022-07-26T18:35:01.985Z,24.72
2022-07-26T18:37:30.534Z,24.73
2022-07-26T18:39:59.912Z,24.65
2022-07-26T18:42:27.594Z,24.66
2022-07-26T18:44:55.159Z,24.62
2022-07-26T18:47:23.238Z,24.52
2022-07-26T18:49:51.403Z,24.50
2022-07-26T18:52:28.640Z,24.47
2022-07-26T18:55:02.719Z,24.40
2022-07-26T18:57:35.088Z,24.35
2022-07-26T19:00:05.812Z,24.32
2022-07-26T19:02:33.505Z,24.30
2022-07-26T19:05:01.176Z,24.24
2022-07-26T19:07:28.908Z,24.18
2022-07-26T19:09:58.565Z,24.17
2022-07-26T19:12:27.808Z,24.13
2022-07-26T19:15:00.223Z,24.06
2022-07-26T19:17:30.968Z,24.01
2022-07-26T19:20:00.949Z,23.92
2022-07-26T19:22:30.607Z,23.84
2022-07-26T19:24:58.319Z,23.80
2022-07-26T19:27:26.368Z,23.80
2022-07-26T19:29:54.933Z,23.77
2022-07-26T19:32:22.485Z,23.73
2022-07-26T19:34:50.480Z,23.64
2022-07-26T19:37:22.917Z,23.60
2022-07-26T19:39:52.460Z,23.61
2022-07-26T19:42:20.329Z,23.56
2022-07-26T19:44:48.461Z,23.56
2022-07-26T19:47:16.029Z,23.54
2022-07-26T19:49:43.862Z,23.53
2022-07-26T19:52:11.997Z,23.50
2022-07-26T19:54:40.586Z,23.50
2022-07-26T19:57:08.731Z,23.49
2022-07-26T19:59:36.374Z,23.45
2022-07-26T20:02:04.222Z,23.28
2022-07-26T20:04:31.985Z,23.24
2022-07-26T20:07:00.964Z,23.19
2022-07-26T20:09:29.992Z,23.10
2022-07-26T20:11:58.317Z,23.04
2022-07-26T20:14:26.478Z,22.91
2022-07-26T20:16:57.126Z,22.80
2022-07-26T20:19:27.039Z,22.72
2022-07-26T20:21:55.019Z,22.63
2022-07-26T20:24:22.710Z,22.54
2022-07-26T20:26:50.355Z,22.42
2022-07-26T20:29:17.930Z,22.28
2022-07-26T20:31:45.946Z,22.33
2022-07-26T20:34:13.622Z,22.32
2022-07-26T20:36:41.399Z,22.32
2022-07-26T20:39:09.691Z,22.32
2022-07-26T20:41:37.652Z,22.30
2022-07-26T20:44:07.038Z,22.19
2022-07-26T20:46:40.179Z,22.14
2022-07-26T20:49:09.442Z,22.06
2022-07-26T20:51:37.784Z,22.13
2022-07-26T20:54:05.499Z,22.11
2022-07-26T20:56:33.407Z,22.09
2022-07-26T20:59:02.503Z,22.11
2022-07-26T21:01:31.636Z,22.11
2022-07-26T21:03:59.857Z,22.08
2022-07-26T21:06:29.506Z,22.14
2022-07-26T21:08:58.046Z,22.17
2022-07-26T21:11:26.060Z,22.20
2022-07-26T21:14:49.667Z,22.20
2022-07-26T21:18:31.407Z,22.20
2022-07-26T21:22:13.342Z,22.22
2022-07-26T21:26:00.389Z,22.23
2022-07-26T21:29:42.567Z,22.27
2022-07-26T21:33:26.271Z,22.28
2022-07-26T21:37:08.514Z,22.30
2022-07-26T21:40:50.430Z,22.28
2022-07-26T21:44:32.309Z,22.28
2022-07-26T21:48:14.390Z,22.24
2022-07-26T21:52:00.134Z,22.21
2022-07-26T21:55:41.695Z,22.21
2022-07-26T21:59:23.340Z,22.20
2022-07-26T22:03:05.237Z,22.18
2022-07-26T22:06:47.539Z,22.11
2022-07-26T22:10:29.491Z,22.08
2022-07-26T22:14:11.468Z,21.97
2022-07-26T22:17:53.409Z,21.87
2022-07-26T22:20:39.917Z,21.77
2022-07-26T22:23:12.776Z,21.69
2022-07-26T22:25:40.576Z,21.71
2022-07-26T22:28:08.956Z,21.70
2022-07-26T22:30:36.938Z,21.66
2022-07-26T22:33:07.844Z,21.58
2022-07-26T22:35:36.800Z,21.52
2022-07-26T22:38:07.059Z,21.47
2022-07-26T22:40:34.814Z,21.39
2022-07-26T22:43:02.761Z,21.37
2022-07-26T22:45:31.071Z,21.33
2022-07-26T22:47:58.674Z,21.29
2022-07-26T22:50:26.208Z,21.27
2022-07-26T22:52:53.835Z,21.30
2022-07-26T22:55:21.838Z,21.34
2022-07-26T22:57:49.577Z,21.33
2022-07-26T23:00:19.138Z,21.36
2022-07-26T23:02:48.324Z,21.36
2022-07-26T23:05:16.615Z,21.36
2022-07-26T23:07:47.181Z,21.38
2022-07-26T23:10:17.060Z,21.35
2022-07-26T23:12:45.449Z,21.32
2022-07-26T23:15:13.539Z,21.30
2022-07-26T23:17:41.365Z,21.27
2022-07-26T23:20:10.405Z,21.24
2022-07-26T23:22:38.781Z,21.20
2022-07-26T23:25:06.617Z,21.21
2022-07-26T23:27:34.130Z,21.15
2022-07-26T23:30:01.671Z,21.09
2022-07-26T23:32:30.890Z,21.11
2022-07-26T23:34:58.307Z,21.10
2022-07-26T23:37:25.760Z,21.09
2022-07-26T23:39:53.251Z,21.12
2022-07-26T23:42:20.755Z,21.10
2022-07-26T23:44:48.240Z,21.14
2022-07-26T23:47:15.722Z,20.92
2022-07-26T23:49:43.209Z,21.17
2022-07-26T23:52:10.657Z,21.14
2022-07-26T23:54:38.045Z,21.12
2022-07-26T23:57:05.520Z,21.10
2022-07-26T23:59:32.933Z,21.07
